createdAt,value
2023-09-14T00:00:32.469Z,31.42
2023-09-14T00:01:34.769Z,31.44
2023-09-14T00:02:36.953Z,31.43
2023-09-14T00:03:39.061Z,31.41
2023-09-14T00:04:41.134Z,31.41
2023-09-14T00:05:51.601Z,31.49
2023-09-14T00:06:53.557Z,31.45
2023-09-14T00:07:55.828Z,31.40
2023-09-14T00:08:57.804Z,31.43
2023-09-14T00:10:00.227Z,31.41
2023-09-14T00:11:05.025Z,31.41
2023-09-14T00:12:07.324Z,31.41
2023-09-14T00:13:10.894Z,31.42
2023-09-14T00:14:12.983Z,31.42
2023-09-14T00:15:14.994Z,31.41
2023-09-14T00:16:18.340Z,31.39
2023-09-14T00:17:20.451Z,31.41
2023-09-14T00:18:23.028Z,31.39
2023-09-14T00:19:26.867Z,31.40
2023-09-14T00:20:35.160Z,31.39
2023-09-14T00:21:37.186Z,31.41
2023-09-14T00:22:39.403Z,31.39
2023-09-14T00:23:41.290Z,31.40
2023-09-14T00:24:43.487Z,31.40
2023-09-14T00:25:45.449Z,31.38
2023-09-14T00:26:47.599Z,31.39
2023-09-14T00:27:52.041Z,31.40
2023-09-14T00:28:53.976Z,31.38
2023-09-14T00:29:55.892Z,31.39
2023-09-14T00:30:58.112Z,31.36
2023-09-14T00:32:00.079Z,31.38
2023-09-14T00:33:02.002Z,31.37
2023-09-14T00:34:04.247Z,31.37
2023-09-14T00:35:19.677Z,31.45
2023-09-14T00:36:21.781Z,31.38
2023-09-14T00:37:23.714Z,31.36
2023-09-14T00:38:26.956Z,31.37
2023-09-14T00:39:31.458Z,31.37
2023-09-14T00:40:33.327Z,31.39
2023-09-14T00:41:35.148Z,31.35
2023-09-14T00:42:44.809Z,31.40
2023-09-14T00:43:46.830Z,31.38
2023-09-14T00:44:48.835Z,31.34
2023-09-14T00:45:51.918Z,31.36
2023-09-14T00:46:54.705Z,31.33
2023-09-14T00:47:59.046Z,31.33
2023-09-14T00:49:02.547Z,31.36
2023-09-14T00:50:06.981Z,31.36
2023-09-14T00:51:09.345Z,31.35
2023-09-14T00:52:12.817Z,31.33
2023-09-14T00:53:17.910Z,31.36
2023-09-14T00:54:21.254Z,31.36
2023-09-14T00:55:25.275Z,31.34
2023-09-14T00:56:29.625Z,31.34
2023-09-14T00:57:32.977Z,31.33
2023-09-14T00:58:34.937Z,31.34
2023-09-14T00:59:38.507Z,31.30
2023-09-14T01:00:40.655Z,31.33
2023-09-14T01:01:42.622Z,31.33
2023-09-14T01:02:45.796Z,31.31
2023-09-14T01:03:47.912Z,31.33
2023-09-14T01:04:51.361Z,31.33
2023-09-14T01:05:53.895Z,31.31
2023-09-14T01:06:55.945Z,31.30
2023-09-14T01:07:58.871Z,31.31
2023-09-14T01:09:02.574Z,31.32
2023-09-14T01:10:08.487Z,31.32
2023-09-14T01:11:10.871Z,31.32
2023-09-14T01:12:15.592Z,31.29
2023-09-14T01:13:44.072Z,31.45
2023-09-14T01:15:00.997Z,31.40
2023-09-14T01:16:22.768Z,31.43
2023-09-14T01:17:44.731Z,31.43
2023-09-14T01:19:05.046Z,31.39
2023-09-14T01:20:34.589Z,31.42
2023-09-14T01:21:53.084Z,31.43
2023-09-14T01:23:37.780Z,31.50
2023-09-14T01:24:59.534Z,31.43
2023-09-14T01:26:03.357Z,31.32
2023-09-14T01:27:06.438Z,31.29
2023-09-14T01:28:14.662Z,31.31
2023-09-14T01:29:17.098Z,31.26
2023-09-14T01:30:18.908Z,31.24
2023-09-14T01:31:20.794Z,31.25
2023-09-14T01:32:22.799Z,31.23
2023-09-14T01:33:27.256Z,31.23
2023-09-14T01:34:29.427Z,31.21
2023-09-14T01:35:36.805Z,31.24
2023-09-14T01:36:51.902Z,31.29
2023-09-14T01:37:56.538Z,31.24
2023-09-14T01:39:00.750Z,31.25
2023-09-14T01:40:09.645Z,31.25
2023-09-14T01:41:12.796Z,31.23
2023-09-14T01:42:15.799Z,31.23
2023-09-14T01:43:18.425Z,31.21
2023-09-14T01:44:20.571Z,31.24
2023-09-14T01:45:25.003Z,31.24
2023-09-14T01:46:28.012Z,31.22
2023-09-14T01:47:31.150Z,31.20
2023-09-14T01:48:34.748Z,31.23
2023-09-14T01:49:36.547Z,31.22
2023-09-14T01:50:38.386Z,31.21
2023-09-14T01:51:40.912Z,31.21
2023-09-14T01:52:43.076Z,31.21
2023-09-14T01:53:45.283Z,31.21
2023-09-14T01:54:47.406Z,31.19
2023-09-14T01:55:49.606Z,31.21
2023-09-14T01:56:51.929Z,31.20
2023-09-14T01:57:53.758Z,31.15
2023-09-14T01:58:55.741Z,31.19
2023-09-14T01:59:57.661Z,31.19
2023-09-14T02:01:00.061Z,31.21
2023-09-14T02:02:02.042Z,31.21
2023-09-14T02:03:04.653Z,31.21
2023-09-14T02:04:07.038Z,31.21
2023-09-14T02:05:09.617Z,31.20
2023-09-14T02:06:11.693Z,31.21
2023-09-14T02:07:13.844Z,31.19
2023-09-14T02:08:15.725Z,31.22
2023-09-14T02:09:17.788Z,31.20
2023-09-14T02:10:22.883Z,31.17
2023-09-14T02:11:24.822Z,31.20
2023-09-14T02:12:26.713Z,31.18
2023-09-14T02:13:28.816Z,31.17
2023-09-14T02:14:30.806Z,31.20
2023-09-14T02:15:32.940Z,31.19
2023-09-14T02:16:34.857Z,31.18
2023-09-14T02:17:37.109Z,31.16
2023-09-14T02:18:39.615Z,31.19
2023-09-14T02:19:41.633Z,31.17
2023-09-14T02:20:46.075Z,31.16
2023-09-14T02:21:48.152Z,31.16
2023-09-14T02:22:50.421Z,31.16
2023-09-14T02:23:52.685Z,31.18
2023-09-14T02:24:54.953Z,31.13
2023-09-14T02:25:57.003Z,31.17
2023-09-14T02:26:59.207Z,31.12
2023-09-14T02:28:01.336Z,31.14
2023-09-14T02:29:04.340Z,31.12
2023-09-14T02:30:07.937Z,31.15
2023-09-14T02:31:10.011Z,31.15
2023-09-14T02:32:12.007Z,31.13
2023-09-14T02:33:13.914Z,31.13
2023-09-14T02:34:15.827Z,31.12
2023-09-14T02:35:17.804Z,31.11
2023-09-14T02:36:19.805Z,31.10
2023-09-14T02:37:21.798Z,31.11
2023-09-14T02:38:23.662Z,31.10
2023-09-14T02:39:25.885Z,31.10
2023-09-14T02:40:27.752Z,31.06
2023-09-14T02:41:29.948Z,31.08
2023-09-14T02:42:31.834Z,31.05
2023-09-14T02:43:33.730Z,31.11
2023-09-14T02:44:38.308Z,31.10
2023-09-14T02:45:40.429Z,31.10
2023-09-14T02:46:42.742Z,31.08
2023-09-14T02:47:45.763Z,31.08
2023-09-14T02:48:48.333Z,31.09
2023-09-14T02:49:50.518Z,31.09
2023-09-14T02:50:52.525Z,31.07
2023-09-14T02:51:54.326Z,31.07
2023-09-14T02:52:56.309Z,31.06
2023-09-14T02:53:58.212Z,31.08
2023-09-14T02:55:00.635Z,31.06
2023-09-14T02:56:11.160Z,31.13
2023-09-14T02:57:13.283Z,31.09
2023-09-14T02:58:15.146Z,31.06
2023-09-14T02:59:17.888Z,31.05
2023-09-14T03:00:20.074Z,31.07
2023-09-14T03:01:22.446Z,31.04
2023-09-14T03:02:24.886Z,31.04
2023-09-14T03:03:26.944Z,31.04
2023-09-14T03:04:28.912Z,31.02
2023-09-14T03:05:30.901Z,31.05
2023-09-14T03:06:35.777Z,31.06
2023-09-14T03:07:39.515Z,31.03
2023-09-14T03:08:41.391Z,31.05
2023-09-14T03:09:43.669Z,31.05
2023-09-14T03:10:45.567Z,31.00
2023-09-14T03:11:47.700Z,31.03
2023-09-14T03:12:49.752Z,31.03
2023-09-14T03:13:52.738Z,31.02
2023-09-14T03:14:54.755Z,31.00
2023-09-14T03:15:58.875Z,30.95
2023-09-14T03:17:01.114Z,31.01
2023-09-14T03:18:03.834Z,30.99
2023-09-14T03:19:06.010Z,31.01
2023-09-14T03:20:08.896Z,30.99
2023-09-14T03:21:24.982Z,31.10
2023-09-14T03:22:26.941Z,31.03
2023-09-14T03:23:28.970Z,30.97
2023-09-14T03:24:30.824Z,30.99
2023-09-14T03:25:32.812Z,31.01
2023-09-14T03:26:34.745Z,30.99
2023-09-14T03:27:37.872Z,30.96
2023-09-14T03:28:39.958Z,30.98
2023-09-14T03:29:43.673Z,30.98
2023-09-14T03:30:49.016Z,30.96
2023-09-14T03:31:51.966Z,30.98
2023-09-14T03:32:55.080Z,30.95
2023-09-14T03:33:57.161Z,30.97
2023-09-14T03:34:59.037Z,30.95
2023-09-14T03:36:02.640Z,30.95
2023-09-14T03:37:05.024Z,30.95
2023-09-14T03:38:07.279Z,30.95
2023-09-14T03:39:10.404Z,30.94
2023-09-14T03:40:12.634Z,30.94
2023-09-14T03:41:15.016Z,30.92
2023-09-14T03:42:17.802Z,30.90
2023-09-14T03:43:19.684Z,30.93
2023-09-14T03:44:21.616Z,30.89
2023-09-14T03:45:23.531Z,30.90
2023-09-14T03:46:26.282Z,30.93
2023-09-14T03:47:28.613Z,30.91
2023-09-14T03:48:30.846Z,30.92
2023-09-14T03:49:32.938Z,30.90
2023-09-14T03:50:35.041Z,30.93
2023-09-14T03:51:37.215Z,30.92
2023-09-14T03:52:39.292Z,30.90
2023-09-14T03:53:41.886Z,30.88
2023-09-14T03:54:43.847Z,30.87
2023-09-14T03:55:45.787Z,30.91
2023-09-14T03:56:47.672Z,30.90
2023-09-14T03:57:49.956Z,30.88
2023-09-14T03:58:51.903Z,30.90
2023-09-14T03:59:54.170Z,30.90
2023-09-14T04:00:56.575Z,30.89
2023-09-14T04:01:58.712Z,30.89
2023-09-14T04:03:00.665Z,30.88
2023-09-14T04:04:03.906Z,30.87
2023-09-14T04:05:13.335Z,30.95
2023-09-14T04:06:15.208Z,30.90
2023-09-14T04:07:18.540Z,30.90
2023-09-14T04:08:20.518Z,30.89
2023-09-14T04:09:22.489Z,30.88
2023-09-14T04:10:24.380Z,30.87
2023-09-14T04:11:26.408Z,30.85
2023-09-14T04:12:28.621Z,30.87
2023-09-14T04:13:35.776Z,30.88
2023-09-14T04:14:38.127Z,30.84
2023-09-14T04:15:39.960Z,30.84
2023-09-14T04:16:43.283Z,30.85
2023-09-14T04:17:46.639Z,30.87
2023-09-14T04:18:49.004Z,30.84
2023-09-14T04:19:51.189Z,30.86
2023-09-14T04:20:54.575Z,30.85
2023-09-14T04:22:00.348Z,30.85
2023-09-14T04:23:02.911Z,30.84
2023-09-14T04:24:05.525Z,30.85
2023-09-14T04:25:08.227Z,30.82
2023-09-14T04:26:10.596Z,30.83
2023-09-14T04:27:12.768Z,30.85
2023-09-14T04:28:19.968Z,30.88
2023-09-14T04:29:23.158Z,30.85
2023-09-14T04:30:25.092Z,30.85
2023-09-14T04:31:27.115Z,30.84
2023-09-14T04:32:29.002Z,30.82
2023-09-14T04:33:32.382Z,30.83
2023-09-14T04:34:34.608Z,30.82
2023-09-14T04:35:36.504Z,30.82
2023-09-14T04:36:38.794Z,30.83
2023-09-14T04:37:40.786Z,30.81
2023-09-14T04:38:42.989Z,30.82
2023-09-14T04:39:47.305Z,30.82
2023-09-14T04:40:49.358Z,30.80
2023-09-14T04:41:51.277Z,30.81
2023-09-14T04:42:53.785Z,30.80
2023-09-14T04:43:56.396Z,30.80
2023-09-14T04:44:58.476Z,30.81
2023-09-14T04:46:02.949Z,30.78
2023-09-14T04:47:05.068Z,30.76
2023-09-14T04:48:07.641Z,30.80
2023-09-14T04:49:09.641Z,30.77
2023-09-14T04:50:11.605Z,30.80
2023-09-14T04:51:13.752Z,30.77
2023-09-14T04:52:15.640Z,30.79
2023-09-14T04:53:17.514Z,30.80
2023-09-14T04:54:19.378Z,30.78
2023-09-14T04:55:23.188Z,30.75
2023-09-14T04:56:25.386Z,30.78
2023-09-14T04:57:27.542Z,30.78
2023-09-14T04:58:29.396Z,30.74
2023-09-14T04:59:31.399Z,30.77
2023-09-14T05:00:34.882Z,30.77
2023-09-14T05:01:37.288Z,30.78
2023-09-14T05:02:40.481Z,30.74
2023-09-14T05:03:42.715Z,30.77
2023-09-14T05:04:45.141Z,30.72
2023-09-14T05:05:56.948Z,30.81
2023-09-14T05:06:58.933Z,30.77
2023-09-14T05:08:01.084Z,30.73
2023-09-14T05:09:03.975Z,30.76
2023-09-14T05:10:09.316Z,30.74
2023-09-14T05:11:11.392Z,30.73
2023-09-14T05:12:15.243Z,30.73
2023-09-14T05:13:19.537Z,30.74
2023-09-14T05:14:21.645Z,30.73
2023-09-14T05:15:23.527Z,30.72
2023-09-14T05:16:25.473Z,30.74
2023-09-14T05:17:27.621Z,30.72
2023-09-14T05:18:29.855Z,30.73
2023-09-14T05:19:32.285Z,30.73
2023-09-14T05:20:34.122Z,30.73
2023-09-14T05:21:35.995Z,30.73
2023-09-14T05:22:39.737Z,30.72
2023-09-14T05:23:41.896Z,30.72
2023-09-14T05:24:44.445Z,30.73
2023-09-14T05:25:46.990Z,30.73
2023-09-14T05:26:49.963Z,30.71
2023-09-14T05:27:51.972Z,30.72
2023-09-14T05:28:54.082Z,30.71
2023-09-14T05:29:55.967Z,30.71
2023-09-14T05:30:57.982Z,30.70
2023-09-14T05:32:01.051Z,30.70
2023-09-14T05:33:03.395Z,30.70
2023-09-14T05:34:07.432Z,30.69
2023-09-14T05:35:09.451Z,30.71
2023-09-14T05:36:11.430Z,30.71
2023-09-14T05:37:15.932Z,30.67
2023-09-14T05:38:18.081Z,30.69
2023-09-14T05:39:20.467Z,30.70
2023-09-14T05:40:22.958Z,30.67
2023-09-14T05:41:24.925Z,30.69
2023-09-14T05:42:27.430Z,30.68
2023-09-14T05:43:29.519Z,30.66
2023-09-14T05:44:31.830Z,30.66
2023-09-14T05:45:34.714Z,30.67
2023-09-14T05:46:41.131Z,30.70
2023-09-14T05:47:43.305Z,30.66
2023-09-14T05:48:46.103Z,30.68
2023-09-14T05:49:48.615Z,30.67
2023-09-14T05:50:50.762Z,30.67
2023-09-14T05:51:52.825Z,30.62
2023-09-14T05:52:56.458Z,30.66
2023-09-14T05:53:58.459Z,30.68
2023-09-14T05:55:00.448Z,30.67
2023-09-14T05:56:02.448Z,30.64
2023-09-14T05:57:05.302Z,30.65
2023-09-14T05:58:07.505Z,30.66
2023-09-14T05:59:21.424Z,30.63
2023-09-14T06:00:31.745Z,30.67
2023-09-14T06:01:34.054Z,30.67
2023-09-14T06:02:36.141Z,30.64
2023-09-14T06:03:38.287Z,30.65
2023-09-14T06:04:41.536Z,30.65
2023-09-14T06:05:43.510Z,30.66
2023-09-14T06:06:45.422Z,30.65
2023-09-14T06:07:47.375Z,30.62
2023-09-14T06:08:49.287Z,30.62
2023-09-14T06:09:51.353Z,30.64
2023-09-14T06:10:53.494Z,30.63
2023-09-14T06:11:55.483Z,30.61
2023-09-14T06:12:57.690Z,30.61
2023-09-14T06:13:59.598Z,30.60
2023-09-14T06:15:01.810Z,30.60
2023-09-14T06:16:04.697Z,30.58
2023-09-14T06:17:06.631Z,30.58
2023-09-14T06:18:08.889Z,30.61
2023-09-14T06:19:11.144Z,30.59
2023-09-14T06:20:13.779Z,30.60
2023-09-14T06:21:15.778Z,30.60
2023-09-14T06:22:17.958Z,30.60
2023-09-14T06:23:19.792Z,30.59
2023-09-14T06:24:21.971Z,30.60
2023-09-14T06:25:23.908Z,30.60
2023-09-14T06:26:29.768Z,30.62
2023-09-14T06:27:31.728Z,30.61
2023-09-14T06:28:33.692Z,30.53
2023-09-14T06:29:35.588Z,30.59
2023-09-14T06:30:37.594Z,30.53
2023-09-14T06:31:40.057Z,30.59
2023-09-14T06:32:42.156Z,30.60
2023-09-14T06:33:44.654Z,30.60
2023-09-14T06:34:47.562Z,30.58
2023-09-14T06:35:49.397Z,30.61
2023-09-14T06:36:52.008Z,30.59
2023-09-14T06:37:54.430Z,30.57
2023-09-14T06:38:57.062Z,30.57
2023-09-14T06:39:58.998Z,30.56
2023-09-14T06:41:01.125Z,30.57
2023-09-14T06:42:03.243Z,30.60
2023-09-14T06:43:05.792Z,30.59
2023-09-14T06:44:08.101Z,30.58
2023-09-14T06:45:10.239Z,30.62
2023-09-14T06:46:12.914Z,30.61
2023-09-14T06:47:14.862Z,30.59
2023-09-14T06:48:16.942Z,30.60
2023-09-14T06:49:19.165Z,30.59
2023-09-14T06:50:22.562Z,30.58
2023-09-14T06:51:24.743Z,30.60
2023-09-14T06:52:26.762Z,30.60
2023-09-14T06:53:28.689Z,30.60
2023-09-14T06:54:30.880Z,30.54
2023-09-14T06:55:33.223Z,30.60
2023-09-14T06:56:35.979Z,30.58
2023-09-14T06:57:38.177Z,30.59
2023-09-14T06:58:40.449Z,30.60
2023-09-14T06:59:42.484Z,30.60
2023-09-14T07:00:44.481Z,30.59
2023-09-14T07:01:46.762Z,30.59
2023-09-14T07:02:49.925Z,30.59
2023-09-14T07:03:53.111Z,30.58
2023-09-14T07:04:56.846Z,30.59
2023-09-14T07:05:59.880Z,30.57
2023-09-14T07:07:02.683Z,30.60
2023-09-14T07:08:05.100Z,30.60
2023-09-14T07:09:07.671Z,30.59
2023-09-14T07:10:10.366Z,30.60
2023-09-14T07:11:13.288Z,30.59
2023-09-14T07:12:15.208Z,30.57
2023-09-14T07:13:19.314Z,30.59
2023-09-14T07:14:21.339Z,30.60
2023-09-14T07:15:23.542Z,30.59
2023-09-14T07:16:25.877Z,30.59
2023-09-14T07:17:27.934Z,30.58
2023-09-14T07:18:33.658Z,30.59
2023-09-14T07:19:35.606Z,30.55
2023-09-14T07:20:37.452Z,30.58
2023-09-14T07:21:39.296Z,30.59
2023-09-14T07:22:41.263Z,30.58
2023-09-14T07:23:43.290Z,30.57
2023-09-14T07:24:45.421Z,30.56
2023-09-14T07:25:49.851Z,30.58
2023-09-14T07:26:52.005Z,30.58
2023-09-14T07:27:53.905Z,30.58
2023-09-14T07:28:56.226Z,30.59
2023-09-14T07:29:58.138Z,30.58
2023-09-14T07:31:05.924Z,30.61
2023-09-14T07:32:08.148Z,30.57
2023-09-14T07:33:12.437Z,30.59
2023-09-14T07:34:15.053Z,30.59
2023-09-14T07:35:17.096Z,30.58
2023-09-14T07:36:20.926Z,30.57
2023-09-14T07:37:22.844Z,30.58
2023-09-14T07:38:25.048Z,30.57
2023-09-14T07:39:26.993Z,30.57
2023-09-14T07:40:29.888Z,30.54
2023-09-14T07:41:32.066Z,30.57
2023-09-14T07:42:34.108Z,30.56
2023-09-14T07:43:36.065Z,30.57
2023-09-14T07:44:38.252Z,30.53
2023-09-14T07:45:40.545Z,30.56
2023-09-14T07:46:42.625Z,30.57
2023-09-14T07:47:44.667Z,30.57
2023-09-14T07:48:46.552Z,30.56
2023-09-14T07:49:48.458Z,30.56
2023-09-14T07:50:50.803Z,30.57
2023-09-14T07:51:52.606Z,30.57
2023-09-14T07:52:54.541Z,30.52
2023-09-14T07:53:56.985Z,30.55
2023-09-14T07:54:59.171Z,30.55
2023-09-14T07:56:01.053Z,30.57
2023-09-14T07:57:03.302Z,30.56
2023-09-14T07:58:07.973Z,30.56
2023-09-14T07:59:10.449Z,30.57
2023-09-14T08:00:12.876Z,30.55
2023-09-14T08:01:14.899Z,30.57
2023-09-14T08:02:16.860Z,30.55
2023-09-14T08:03:18.881Z,30.54
2023-09-14T08:04:21.117Z,30.57
2023-09-14T08:05:23.635Z,30.54
2023-09-14T08:06:26.165Z,30.56
2023-09-14T08:07:28.740Z,30.56
2023-09-14T08:08:30.666Z,30.55
2023-09-14T08:09:32.562Z,30.55
2023-09-14T08:10:34.706Z,30.52
2023-09-14T08:11:37.889Z,30.54
2023-09-14T08:12:39.738Z,30.54
2023-09-14T08:13:42.036Z,30.56
2023-09-14T08:14:44.151Z,30.55
2023-09-14T08:15:47.214Z,30.54
2023-09-14T08:16:49.225Z,30.55
2023-09-14T08:17:51.180Z,30.54
2023-09-14T08:18:53.909Z,30.54
2023-09-14T08:19:55.914Z,30.55
2023-09-14T08:20:58.178Z,30.56
2023-09-14T08:22:01.143Z,30.55
2023-09-14T08:23:03.380Z,30.56
2023-09-14T08:24:05.946Z,30.54
2023-09-14T08:25:08.815Z,30.53
2023-09-14T08:26:11.112Z,30.53
2023-09-14T08:27:13.581Z,30.57
2023-09-14T08:28:18.679Z,30.55
2023-09-14T08:29:20.684Z,30.54
2023-09-14T08:30:24.129Z,30.56
2023-09-14T08:31:26.187Z,30.56
2023-09-14T08:32:28.570Z,30.54
2023-09-14T08:33:30.704Z,30.54
2023-09-14T08:34:33.213Z,30.54
2023-09-14T08:35:38.275Z,30.56
2023-09-14T08:36:40.437Z,30.53
2023-09-14T08:37:42.321Z,30.54
2023-09-14T08:38:44.293Z,30.52
2023-09-14T08:39:46.310Z,30.52
2023-09-14T08:40:55.679Z,30.59
2023-09-14T08:41:57.808Z,30.56
2023-09-14T08:43:02.261Z,30.55
2023-09-14T08:44:09.022Z,30.58
2023-09-14T08:45:13.781Z,30.56
2023-09-14T08:46:18.898Z,30.54
2023-09-14T08:47:24.042Z,30.56
2023-09-14T08:48:32.105Z,30.58
2023-09-14T08:49:36.497Z,30.57
2023-09-14T08:50:40.791Z,30.55
2023-09-14T08:51:47.379Z,30.57
2023-09-14T08:52:49.510Z,30.54
2023-09-14T08:54:03.570Z,30.56
2023-09-14T08:55:19.702Z,30.62
2023-09-14T08:56:24.184Z,30.59
2023-09-14T08:57:27.294Z,30.57
2023-09-14T08:58:31.208Z,30.56
2023-09-14T08:59:36.408Z,30.57
2023-09-14T09:00:39.380Z,30.55
2023-09-14T09:01:45.537Z,30.55
2023-09-14T09:02:53.465Z,30.57
2023-09-14T09:03:55.426Z,30.56
2023-09-14T09:04:57.489Z,30.58
2023-09-14T09:06:00.026Z,30.57
2023-09-14T09:07:05.171Z,30.55
2023-09-14T09:08:07.598Z,30.56
2023-09-14T09:09:14.729Z,30.51
2023-09-14T09:10:27.253Z,30.62
2023-09-14T09:11:30.901Z,30.59
2023-09-14T09:12:32.839Z,30.55
2023-09-14T09:13:45.694Z,30.62
2023-09-14T09:14:50.216Z,30.56
2023-09-14T09:15:52.219Z,30.54
2023-09-14T09:16:54.129Z,30.54
2023-09-14T09:18:08.157Z,30.63
2023-09-14T09:19:11.842Z,30.58
2023-09-14T09:20:20.923Z,30.58
2023-09-14T09:21:30.987Z,30.63
2023-09-14T09:22:33.213Z,30.56
2023-09-14T09:23:35.178Z,30.52
2023-09-14T09:24:39.836Z,30.52
2023-09-14T09:25:52.710Z,30.62
2023-09-14T09:26:55.731Z,30.54
2023-09-14T09:28:02.953Z,30.57
2023-09-14T09:29:20.794Z,30.66
2023-09-14T09:30:26.347Z,30.58
2023-09-14T09:31:45.777Z,30.69
2023-09-14T09:32:56.945Z,30.67
2023-09-14T09:33:59.317Z,30.57
2023-09-14T09:35:23.224Z,30.69
2023-09-14T09:36:25.252Z,30.59
2023-09-14T09:37:31.816Z,30.56
2023-09-14T09:38:41.408Z,30.60
2023-09-14T09:39:45.456Z,30.57
2023-09-14T09:40:47.956Z,30.56
2023-09-14T09:41:50.098Z,30.56
2023-09-14T09:42:56.008Z,30.56
2023-09-14T09:43:58.716Z,30.56
2023-09-14T09:45:01.167Z,30.55
2023-09-14T09:46:03.230Z,30.54
2023-09-14T09:47:05.847Z,30.56
2023-09-14T09:48:10.608Z,30.58
2023-09-14T09:49:24.464Z,30.65
2023-09-14T09:50:28.135Z,30.60
2023-09-14T09:51:32.531Z,30.48
2023-09-14T09:52:36.204Z,30.58
2023-09-14T09:53:38.575Z,30.54
2023-09-14T09:54:40.876Z,30.55
2023-09-14T09:55:47.638Z,30.59
2023-09-14T09:56:50.712Z,30.57
2023-09-14T09:57:58.653Z,30.63
2023-09-14T09:59:04.618Z,30.60
2023-09-14T10:00:14.662Z,30.63
2023-09-14T10:01:22.521Z,30.66
2023-09-14T10:02:34.923Z,30.65
2023-09-14T10:03:36.869Z,30.60
2023-09-14T10:04:39.020Z,30.58
2023-09-14T10:05:42.108Z,30.56
2023-09-14T10:06:56.950Z,30.64
2023-09-14T10:08:01.497Z,30.62
2023-09-14T10:09:07.831Z,30.58
2023-09-14T10:10:13.525Z,30.51
2023-09-14T10:11:15.564Z,30.58
2023-09-14T10:12:17.552Z,30.58
2023-09-14T10:13:25.998Z,30.63
2023-09-14T10:14:33.689Z,30.63
2023-09-14T10:15:38.231Z,30.60
2023-09-14T10:16:45.439Z,30.59
2023-09-14T10:17:56.956Z,30.67
2023-09-14T10:19:00.060Z,30.55
2023-09-14T10:20:10.266Z,30.61
2023-09-14T10:21:13.341Z,30.59
2023-09-14T10:22:18.994Z,30.63
2023-09-14T10:23:23.159Z,30.61
2023-09-14T10:24:27.474Z,30.60
2023-09-14T10:25:29.858Z,30.59
2023-09-14T10:26:33.351Z,30.60
2023-09-14T10:27:35.566Z,30.59
2023-09-14T10:28:40.111Z,30.59
2023-09-14T10:29:45.091Z,30.60
2023-09-14T10:30:49.602Z,30.60
2023-09-14T10:31:55.848Z,30.61
2023-09-14T10:33:00.401Z,30.60
2023-09-14T10:34:04.880Z,30.61
2023-09-14T10:35:08.899Z,30.63
2023-09-14T10:36:13.143Z,30.61
2023-09-14T10:37:19.936Z,30.63
2023-09-14T10:38:27.192Z,30.63
2023-09-14T10:39:29.101Z,30.63
2023-09-14T10:40:31.575Z,30.63
2023-09-14T10:41:34.002Z,30.62
2023-09-14T10:42:36.044Z,30.59
2023-09-14T10:43:38.089Z,30.61
2023-09-14T10:44:42.002Z,30.64
2023-09-14T10:45:49.764Z,30.63
2023-09-14T10:46:56.575Z,30.60
2023-09-14T10:47:59.757Z,30.59
2023-09-14T10:49:02.376Z,30.63
2023-09-14T10:50:06.527Z,30.59
2023-09-14T10:51:12.961Z,30.62
2023-09-14T10:52:29.486Z,30.73
2023-09-14T10:53:31.661Z,30.63
2023-09-14T10:54:35.213Z,30.64
2023-09-14T10:55:37.654Z,30.66
2023-09-14T10:56:39.713Z,30.61
2023-09-14T10:57:42.588Z,30.62
2023-09-14T10:58:45.498Z,30.63
2023-09-14T11:00:18.633Z,30.68
2023-09-14T11:01:50.388Z,30.73
2023-09-14T11:03:14.625Z,30.72
2023-09-14T11:04:21.341Z,30.73
2023-09-14T11:05:38.539Z,30.78
2023-09-14T11:06:53.975Z,30.78
2023-09-14T11:08:06.605Z,30.73
2023-09-14T11:09:09.573Z,30.66
2023-09-14T11:10:19.207Z,30.70
2023-09-14T11:11:41.243Z,30.78
2023-09-14T11:12:45.529Z,30.70
2023-09-14T11:13:58.704Z,30.74
2023-09-14T11:15:17.124Z,30.78
2023-09-14T11:16:22.059Z,30.68
2023-09-14T11:17:26.412Z,30.68
2023-09-14T11:18:54.883Z,30.81
2023-09-14T11:19:59.769Z,30.69
2023-09-14T11:21:03.271Z,30.59
2023-09-14T11:22:19.084Z,30.73
2023-09-14T11:23:36.543Z,30.74
2023-09-14T11:24:39.907Z,30.70
2023-09-14T11:26:04.708Z,30.65
2023-09-14T11:27:08.840Z,30.67
2023-09-14T11:28:25.678Z,30.76
2023-09-14T11:29:33.156Z,30.70
2023-09-14T11:30:46.721Z,30.73
2023-09-14T11:32:07.703Z,30.74
2023-09-14T11:33:11.340Z,30.70
2023-09-14T11:34:19.580Z,30.69
2023-09-14T11:35:43.152Z,30.80
2023-09-14T11:36:48.370Z,30.71
2023-09-14T11:37:55.409Z,30.69
2023-09-14T11:39:03.015Z,30.68
2023-09-14T11:40:15.157Z,30.68
2023-09-14T11:42:04.604Z,30.83
2023-09-14T11:43:44.017Z,30.74
2023-09-14T11:44:53.669Z,30.72
2023-09-14T11:46:10.796Z,30.69
2023-09-14T11:47:20.066Z,30.72
2023-09-14T11:49:33.016Z,30.71
2023-09-14T11:50:35.722Z,30.69
2023-09-14T11:51:37.842Z,30.69
2023-09-14T11:52:40.230Z,30.67
2023-09-14T11:53:42.263Z,30.67
2023-09-14T11:54:52.953Z,30.71
2023-09-14T11:55:55.173Z,30.67
2023-09-14T11:57:15.711Z,30.80
2023-09-14T11:58:18.593Z,30.71
2023-09-14T11:59:33.449Z,30.76
2023-09-14T12:00:41.495Z,30.73
2023-09-14T12:01:43.680Z,30.69
2023-09-14T12:02:45.654Z,30.70
2023-09-14T12:03:48.317Z,30.70
2023-09-14T12:04:52.295Z,30.69
2023-09-14T12:06:00.425Z,30.69
2023-09-14T12:07:04.981Z,30.68
2023-09-14T12:08:18.426Z,30.74
2023-09-14T12:09:43.110Z,30.85
2023-09-14T12:10:53.266Z,30.79
2023-09-14T12:11:55.360Z,30.76
2023-09-14T12:12:57.352Z,30.67
2023-09-14T12:13:59.513Z,30.70
2023-09-14T12:15:02.994Z,30.70
2023-09-14T12:16:06.602Z,30.71
2023-09-14T12:17:27.255Z,30.81
2023-09-14T12:18:43.511Z,30.82
2023-09-14T12:19:51.602Z,30.77
2023-09-14T12:20:54.588Z,30.72
2023-09-14T12:21:57.222Z,30.70
2023-09-14T12:22:59.663Z,30.71
2023-09-14T12:24:02.044Z,30.67
2023-09-14T12:25:05.776Z,30.71
2023-09-14T12:26:14.734Z,30.73
2023-09-14T12:27:19.047Z,30.72
2023-09-14T12:28:21.376Z,30.71
2023-09-14T12:29:26.150Z,30.72
2023-09-14T12:30:30.416Z,30.72
2023-09-14T12:31:36.987Z,30.74
2023-09-14T12:32:40.917Z,30.75
2023-09-14T12:33:44.690Z,30.73
2023-09-14T12:34:47.609Z,30.72
2023-09-14T12:35:49.645Z,30.74
2023-09-14T12:36:51.924Z,30.72
2023-09-14T12:37:55.097Z,30.74
2023-09-14T12:38:58.113Z,30.74
2023-09-14T12:40:13.990Z,30.82
2023-09-14T12:41:16.418Z,30.71
2023-09-14T12:42:26.033Z,30.78
2023-09-14T12:43:28.635Z,30.76
2023-09-14T12:44:32.188Z,30.74
2023-09-14T12:45:35.407Z,30.75
2023-09-14T12:46:38.661Z,30.75
2023-09-14T12:47:41.880Z,30.76
2023-09-14T12:48:44.830Z,30.76
2023-09-14T12:49:47.228Z,30.76
2023-09-14T12:50:49.951Z,30.73
2023-09-14T12:51:52.653Z,30.73
2023-09-14T12:52:55.288Z,30.75
2023-09-14T12:53:57.119Z,30.76
2023-09-14T12:55:17.873Z,30.87
2023-09-14T12:56:22.953Z,30.81
2023-09-14T12:57:24.942Z,30.79
2023-09-14T12:58:28.008Z,30.77
2023-09-14T12:59:29.879Z,30.78
2023-09-14T13:00:34.558Z,30.76
2023-09-14T13:01:40.085Z,30.76
2023-09-14T13:02:50.843Z,30.82
2023-09-14T13:03:53.112Z,30.80
2023-09-14T13:04:55.172Z,30.76
2023-09-14T13:05:59.493Z,30.78
2023-09-14T13:07:01.510Z,30.77
2023-09-14T13:08:04.434Z,30.75
2023-09-14T13:09:09.857Z,30.75
2023-09-14T13:10:19.848Z,30.84
2023-09-14T13:11:37.761Z,30.79
2023-09-14T13:12:55.588Z,30.91
2023-09-14T13:13:57.690Z,30.80
2023-09-14T13:14:59.659Z,30.78
2023-09-14T13:16:01.694Z,30.76
2023-09-14T13:17:04.288Z,30.77
2023-09-14T13:18:15.206Z,30.81
2023-09-14T13:19:17.659Z,30.80
2023-09-14T13:20:19.520Z,30.78
2023-09-14T13:21:22.590Z,30.76
2023-09-14T13:22:24.787Z,30.78
2023-09-14T13:23:26.686Z,30.78
2023-09-14T13:24:28.891Z,30.77
2023-09-14T13:25:31.706Z,30.77
2023-09-14T13:26:33.613Z,30.78
2023-09-14T13:27:36.337Z,30.80
2023-09-14T13:28:38.670Z,30.79
2023-09-14T13:29:40.721Z,30.79
2023-09-14T13:30:43.269Z,30.79
2023-09-14T13:31:47.357Z,30.80
2023-09-14T13:32:51.000Z,30.80
2023-09-14T13:33:53.019Z,30.79
2023-09-14T13:34:54.896Z,30.77
2023-09-14T13:36:01.244Z,30.78
2023-09-14T13:37:03.184Z,30.81
2023-09-14T13:38:05.418Z,30.79
2023-09-14T13:39:09.281Z,30.78
2023-09-14T13:40:21.770Z,30.79
2023-09-14T13:41:23.831Z,30.84
2023-09-14T13:42:26.099Z,30.80
2023-09-14T13:43:28.070Z,30.79
2023-09-14T13:44:30.131Z,30.80
2023-09-14T13:45:32.100Z,30.81
2023-09-14T13:46:34.654Z,30.82
2023-09-14T13:47:37.384Z,30.82
2023-09-14T13:48:39.346Z,30.80
2023-09-14T13:49:41.940Z,30.83
2023-09-14T13:50:43.897Z,30.81